Time;durP1;ratioP1;P1;durP2;ratioP2;P2;SDS_P1;SDS_P2;PMS_P1;PMS_P2;Temp;Humidity;BMP_temperature;BMP_pressure;BME280_temperature;BME280_humidity;BME280_pressure;Samples;Min_cycle;Max_cycle;Signal;HPM_P1;HPM_P2
2023/01/14 00:00:21;;;;;;;23.83;12.63;;;;;;;6.17;100.00;101367.47;5085457;28;20028;-47
2023/01/14 00:02:46;;;;;;;26.95;12.77;;;;;;;6.15;100.00;101367.75;5093211;28;20084;-50
2023/01/14 00:05:11;;;;;;;22.73;12.48;;;;;;;6.07;100.00;101366.31;5093643;28;20031;-50
2023/01/14 00:07:36;;;;;;;23.45;12.77;;;;;;;6.04;100.00;101369.59;5093418;28;20074;-48
2023/01/14 00:10:02;;;;;;;24.75;12.18;;;;;;;5.98;100.00;101376.09;5093806;28;20396;-47
2023/01/14 00:12:28;;;;;;;21.98;13.10;;;;;;;5.88;100.00;101381.50;5092693;28;20578;-49
2023/01/14 00:14:53;;;;;;;22.20;12.90;;;;;;;5.84;100.00;101385.88;5092547;28;20375;-49
2023/01/14 00:17:18;;;;;;;25.73;13.57;;;;;;;5.77;100.00;101388.81;5092884;28;20032;-47
2023/01/14 00:19:44;;;;;;;23.50;12.50;;;;;;;5.68;100.00;101384.88;5093551;28;20093;-48
2023/01/14 00:22:09;;;;;;;24.98;12.82;;;;;;;5.61;100.00;101394.16;5093477;28;20535;-48
2023/01/14 00:24:34;;;;;;;25.67;14.10;;;;;;;5.62;100.00;101390.31;5093529;28;20038;-48
2023/01/14 00:27:00;;;;;;;26.17;13.13;;;;;;;5.61;100.00;101393.31;5093194;28;20471;-48
2023/01/14 00:29:28;;;;;;;25.88;14.10;;;;;;;5.57;100.00;101393.03;5093220;28;20063;-48
2023/01/14 00:31:58;;;;;;;24.70;13.50;;;;;;;5.70;100.00;101404.69;5091876;28;20028;-49
2023/01/14 00:34:26;;;;;;;25.90;13.23;;;;;;;5.60;100.00;101402.63;5093198;28;20119;-47
2023/01/14 00:36:51;;;;;;;23.33;12.52;;;;;;;5.60;100.00;101389.75;5091761;28;20069;-47
2023/01/14 00:39:16;;;;;;;22.88;12.63;;;;;;;5.62;100.00;101384.81;5093339;28;20039;-48
2023/01/14 00:41:42;;;;;;;28.05;12.63;;;;;;;5.53;100.00;101378.13;5092962;28;20099;-47
2023/01/14 00:44:08;;;;;;;28.60;12.82;;;;;;;5.51;100.00;101391.31;5091489;28;20383;-49
2023/01/14 00:46:35;;;;;;;23.63;13.00;;;;;;;5.41;100.00;101372.81;5093016;28;20030;-47
2023/01/14 00:49:02;;;;;;;26.50;12.73;;;;;;;5.41;100.00;101391.22;5092985;28;20086;-47
2023/01/14 00:51:29;;;;;;;23.20;12.55;;;;;;;5.37;100.00;101381.81;5092887;28;20131;-50
2023/01/14 00:53:55;;;;;;;24.65;11.73;;;;;;;5.24;100.00;101386.63;5093037;28;20048;-46
2023/01/14 00:56:21;;;;;;;27.40;13.02;;;;;;;5.21;100.00;101386.31;5092991;28;20527;-50
2023/01/14 00:58:47;;;;;;;25.23;12.57;;;;;;;5.19;100.00;101385.75;5085340;28;20043;-49
2023/01/14 01:01:14;;;;;;;25.98;12.43;;;;;;;5.13;100.00;101391.16;5092754;28;20368;-51
2023/01/14 01:03:48;;;;;;;26.38;14.10;;;;;;;5.10;100.00;101397.16;5092515;28;20124;-47
2023/01/14 01:06:16;;;;;;;27.73;12.52;;;;;;;5.08;100.00;101401.25;5091069;28;20043;-48
2023/01/14 01:08:41;;;;;;;23.55;13.02;;;;;;;4.98;100.00;101399.22;5092623;28;20032;-53
2023/01/14 01:11:07;;;;;;;27.77;13.45;;;;;;;4.93;100.00;101401.88;5092435;28;20590;-51
2023/01/14 01:13:34;;;;;;;29.42;13.70;;;;;;;4.88;100.00;101407.31;5092229;28;20391;-56
2023/01/14 01:16:03;;;;;;;27.35;14.35;;;;;;;4.84;100.00;101405.06;5090970;28;20027;-49
2023/01/14 01:18:28;;;;;;;29.77;13.95;;;;;;;4.84;100.00;101420.69;5092584;28;20103;-48
2023/01/14 01:21:02;;;;;;;30.02;14.00;;;;;;;4.84;100.00;101404.25;5090467;28;20512;-46
2023/01/14 01:23:29;;;;;;;29.33;13.55;;;;;;;4.75;100.00;101406.59;5091925;28;20036;-47
2023/01/14 01:26:05;;;;;;;27.48;14.00;;;;;;;4.71;100.00;101407.34;5092509;28;20027;-47
2023/01/14 01:28:32;;;;;;;27.67;13.73;;;;;;;4.72;100.00;101403.50;5092230;28;20081;-47
2023/01/14 01:31:01;;;;;;;25.70;14.45;;;;;;;4.63;100.00;101397.66;5092318;28;20111;-47
2023/01/14 01:33:27;;;;;;;24.17;13.48;;;;;;;4.67;100.00;101394.16;5092264;28;20494;-48
2023/01/14 01:36:00;;;;;;;25.75;14.18;;;;;;;4.71;100.00;101404.59;5092122;28;20214;-48
2023/01/14 01:38:25;;;;;;;27.60;13.75;;;;;;;4.66;100.00;101397.97;5071752;28;20040;-46
2023/01/14 01:40:50;;;;;;;29.30;13.65;;;;;;;4.62;100.00;101387.78;5071997;28;20028;-46
2023/01/14 01:43:17;;;;;;;28.90;13.48;;;;;;;4.60;100.00;101398.16;5071461;28;20499;-49
2023/01/14 01:45:47;;;;;;;28.17;14.30;;;;;;;4.55;100.00;101389.84;5071811;28;20479;-49
2023/01/14 01:48:27;;;;;;;29.83;14.55;;;;;;;4.64;100.00;101399.28;5071829;28;20032;-48
2023/01/14 01:51:16;;;;;;;25.63;13.82;;;;;;;4.68;100.00;101390.31;5071566;28;20115;-48
2023/01/14 01:53:43;;;;;;;24.45;14.68;;;;;;;4.64;100.00;101396.56;5071416;28;20408;-50
2023/01/14 01:56:15;;;;;;;26.13;13.65;;;;;;;4.62;100.00;101394.06;5071506;28;20029;-49
2023/01/14 01:58:41;;;;;;;30.50;13.57;;;;;;;4.64;100.00;101394.66;5064102;28;20262;-49
2023/01/14 02:01:07;;;;;;;28.13;13.98;;;;;;;4.62;100.00;101396.00;5071405;28;20035;-47
2023/01/14 02:03:38;;;;;;;29.48;13.95;;;;;;;4.59;100.00;101391.00;5071500;28;20056;-48
2023/01/14 02:06:05;;;;;;;33.60;13.85;;;;;;;4.59;100.00;101382.78;5071364;28;20483;-47
2023/01/14 02:08:31;;;;;;;30.13;13.73;;;;;;;4.62;100.00;101385.03;5071342;28;20036;-46
2023/01/14 02:11:19;;;;;;;28.95;14.07;;;;;;;4.66;100.00;101381.53;5071367;28;20102;-47
2023/01/14 02:13:44;;;;;;;30.10;13.65;;;;;;;4.60;100.00;101377.03;5070833;28;20036;-50
2023/01/14 02:16:25;;;;;;;30.58;14.38;;;;;;;4.64;100.00;101361.75;5071168;28;20028;-50
2023/01/14 02:19:02;;;;;;;27.27;13.90;;;;;;;4.64;100.00;101361.75;5070540;28;20122;-47
2023/01/14 02:21:36;;;;;;;33.05;14.70;;;;;;;4.63;100.00;101354.63;5070410;28;20090;-49
2023/01/14 02:24:34;;;;;;;26.52;13.30;;;;;;;4.64;100.00;101348.06;5069595;28;20031;-49
2023/01/14 02:27:21;;;;;;;32.55;13.75;;;;;;;4.56;100.00;101342.19;5071040;28;20032;-47
2023/01/14 02:29:52;;;;;;;31.40;13.02;;;;;;;4.60;100.00;101338.69;5069591;28;20040;-49
2023/01/14 02:32:35;;;;;;;28.77;13.68;;;;;;;4.55;100.00;101316.69;5070663;28;20083;-47
2023/01/14 02:35:09;;;;;;;32.50;15.63;;;;;;;4.43;100.00;101318.72;5070773;28;20028;-46
2023/01/14 02:38:09;;;;;;;28.40;14.40;;;;;;;4.35;100.00;101319.97;5070773;28;20029;-49
2023/01/14 02:41:02;;;;;;;32.33;15.38;;;;;;;4.34;100.00;101312.88;5070636;28;20111;-46
2023/01/14 02:46:35;;;;;;;29.00;14.45;;;;;;;4.26;100.00;101296.84;5071113;28;20093;-47
2023/01/14 02:49:04;;;;;;;29.38;14.80;;;;;;;4.22;100.00;101296.53;5070438;28;20047;-45
2023/01/14 02:51:31;;;;;;;31.90;14.50;;;;;;;4.17;100.00;101296.47;5070735;28;20498;-49
2023/01/14 02:53:57;;;;;;;29.88;13.68;;;;;;;4.17;100.00;101305.50;5070000;28;20579;-47
2023/01/14 02:56:22;;;;;;;30.85;14.88;;;;;;;4.16;100.00;101305.75;5069849;28;20111;-49
2023/01/14 02:58:59;;;;;;;31.83;14.07;;;;;;;4.15;100.00;101307.69;5071098;28;20089;-51
2023/01/14 03:02:11;;;;;;;30.58;15.10;;;;;;;4.11;100.00;101294.75;5070518;28;20483;-49
2023/01/14 03:05:15;;;;;;;33.38;15.20;;;;;;;4.11;100.00;101303.78;5063038;28;20355;-47
2023/01/14 03:08:04;;;;;;;31.23;14.83;;;;;;;4.13;100.00;101289.81;5003710;28;20109;-50
2023/01/14 03:10:43;;;;;;;28.55;13.93;;;;;;;4.04;100.00;101273.81;5070688;28;20471;-49
2023/01/14 03:13:16;;;;;;;34.15;14.80;;;;;;;4.08;100.00;101274.13;5070270;28;20029;-51
2023/01/14 03:15:49;;;;;;;35.42;14.32;;;;;;;4.09;100.00;101283.19;5070601;28;20054;-47
2023/01/14 03:18:20;;;;;;;;;;;;;;;4.08;100.00;101274.13;5070833;28;20111;-51
2023/01/14 03:20:56;;;;;;;31.10;14.45;;;;;;;4.08;100.00;101252.25;5086728;28;20004;-47
2023/01/14 03:23:24;;;;;;;32.42;14.00;;;;;;;4.10;100.00;101260.22;5089057;28;20020;-46
2023/01/14 03:25:53;;;;;;;31.13;15.60;;;;;;;4.03;100.00;101242.03;5090503;28;20631;-48
2023/01/14 03:28:23;;;;;;;34.10;15.05;;;;;;;4.12;100.00;101255.28;5090195;28;20028;-48
2023/01/14 03:30:55;;;;;;;29.98;14.00;;;;;;;4.16;100.00;101254.53;5090328;28;20090;-52
2023/01/14 03:33:35;;;;;;;30.80;14.25;;;;;;;4.20;100.00;101257.63;5090493;28;20028;-49
2023/01/14 03:36:04;;;;;;;31.85;14.02;;;;;;;4.24;100.00;101238.78;5091608;28;20031;-47
2023/01/14 03:38:31;;;;;;;33.33;13.93;;;;;;;4.25;100.00;101249.47;5092943;28;20042;-47
2023/01/14 03:41:00;;;;;;;34.75;15.57;;;;;;;4.30;100.00;101248.69;5094471;28;20116;-47
2023/01/14 03:43:42;;;;;;;34.15;15.00;;;;;;;4.31;100.00;101244.88;5093228;28;20059;-48
2023/01/14 03:46:08;;;;;;;29.15;13.50;;;;;;;4.34;100.00;101247.94;5094287;28;20039;-49
2023/01/14 03:48:34;;;;;;;31.50;14.45;;;;;;;4.38;100.00;101231.81;5094178;28;20028;-48
2023/01/14 03:51:05;;;;;;;32.17;14.45;;;;;;;4.40;100.00;101229.66;5094107;28;20048;-49
2023/01/14 03:53:41;;;;;;;30.73;14.55;;;;;;;4.39;100.00;101228.00;5093682;28;20044;-50
2023/01/14 03:56:13;;;;;;;32.97;14.68;;;;;;;4.41;100.00;101223.09;5094348;28;20035;-47
2023/01/14 03:58:50;;;;;;;32.80;14.88;;;;;;;4.45;100.00;101218.75;5094049;28;20038;-47
2023/01/14 04:01:27;;;;;;;31.02;13.93;;;;;;;4.47;100.00;101219.31;5086657;28;20031;-47
2023/01/14 04:03:53;;;;;;;30.48;14.27;;;;;;;4.52;100.00;101211.19;5093971;28;20036;-49
2023/01/14 04:06:18;;;;;;;29.55;13.68;;;;;;;4.51;100.00;101209.53;5092528;28;20054;-45
2023/01/14 04:08:44;;;;;;;29.65;13.88;;;;;;;4.51;100.00;101204.03;5093935;28;20031;-45
2023/01/14 04:11:10;;;;;;;34.47;13.00;;;;;;;4.49;100.00;101192.50;5093905;28;20528;-46
2023/01/14 04:16:19;;;;;;;31.25;14.40;;;;;;;4.49;100.00;101192.50;5093588;28;20348;-46
2023/01/14 04:18:44;;;;;;;29.50;14.02;;;;;;;4.49;100.00;101181.56;5093518;28;20114;-49
2023/01/14 04:21:10;;;;;;;30.05;14.57;;;;;;;4.49;100.00;101175.22;5093453;28;20024;-51
2023/01/14 04:23:35;;;;;;;28.83;13.90;;;;;;;4.47;100.00;101164.53;5093823;28;20032;-47
2023/01/14 04:26:01;;;;;;;30.70;13.65;;;;;;;4.50;100.00;101174.16;5093516;28;20505;-49
2023/01/14 04:28:26;;;;;;;33.88;15.02;;;;;;;4.50;100.00;101175.00;5093365;28;20036;-51
2023/01/14 04:30:53;;;;;;;28.45;14.02;;;;;;;4.51;100.00;101167.59;5092134;28;20047;-50
2023/01/14 04:33:20;;;;;;;31.05;14.60;;;;;;;4.50;100.00;101166.78;5093314;28;20479;-51
2023/01/14 04:35:48;;;;;;;29.65;13.80;;;;;;;4.48;100.00;101157.97;5093308;28;20105;-46
2023/01/14 04:38:13;;;;;;;30.40;12.77;;;;;;;4.49;100.00;101147.81;5093502;28;20109;-46
2023/01/14 04:40:39;;;;;;;27.90;14.13;;;;;;;4.49;100.00;101153.31;5092656;28;20060;-47
2023/01/14 04:43:04;;;;;;;31.80;15.10;;;;;;;4.48;100.00;101144.28;5093041;28;20028;-49
2023/01/14 04:45:29;;;;;;;30.35;13.52;;;;;;;4.48;100.00;101127.84;5093069;28;20062;-50
2023/01/14 04:47:54;;;;;;;29.70;13.30;;;;;;;4.47;100.00;101123.44;5093096;28;20024;-48
2023/01/14 04:50:33;;;;;;;27.65;13.85;;;;;;;4.48;100.00;101135.25;5093089;28;20394;-47
2023/01/14 04:53:09;;;;;;;27.00;12.75;;;;;;;4.45;100.00;101130.28;5093097;28;20070;-47
2023/01/14 04:55:40;;;;;;;30.30;12.88;;;;;;;4.45;100.00;101138.50;5093338;28;20067;-51
2023/01/14 04:58:07;;;;;;;27.33;13.57;;;;;;;4.42;100.00;101128.03;5092934;28;20095;-50
2023/01/14 05:00:34;;;;;;;28.08;14.52;;;;;;;4.44;100.00;101129.41;5092862;28;20043;-49
2023/01/14 05:03:02;;;;;;;29.17;14.02;;;;;;;4.42;100.00;101120.66;5092880;28;20028;-51
2023/01/14 05:05:28;;;;;;;25.13;12.40;;;;;;;4.41;100.00;101107.19;5091268;28;20027;-47
2023/01/14 05:07:53;;;;;;;29.35;13.52;;;;;;;4.43;100.00;101114.09;5092838;28;20551;-46
2023/01/14 05:10:19;;;;;;;27.85;13.07;;;;;;;4.43;100.00;101119.56;5091514;28;20097;-47
2023/01/14 05:12:55;;;;;;;27.95;13.32;;;;;;;4.43;100.00;101114.09;5085225;28;20111;-48
2023/01/14 05:15:27;;;;;;;29.60;14.25;;;;;;;4.45;100.00;101100.13;5092472;28;20542;-50
2023/01/14 05:17:54;;;;;;;29.17;14.70;;;;;;;4.45;100.00;101094.66;5092801;28;20024;-47
2023/01/14 05:20:20;;;;;;;27.55;13.13;;;;;;;4.44;100.00;101077.38;5093122;28;20024;-48
2023/01/14 05:22:46;;;;;;;25.83;13.50;;;;;;;4.48;100.00;101078.53;5092533;28;20114;-49
2023/01/14 05:25:11;;;;;;;28.05;12.57;;;;;;;4.51;100.00;101082.66;5092567;28;20095;-48
2023/01/14 05:27:37;;;;;;;26.90;13.32;;;;;;;4.46;100.00;101071.66;5092494;28;20370;-51
2023/01/14 05:30:03;;;;;;;26.35;12.80;;;;;;;4.53;100.00;101072.25;5092408;28;20031;-51
2023/01/14 05:32:28;;;;;;;26.63;13.55;;;;;;;4.55;100.00;101063.78;5092373;28;20061;-50
2023/01/14 05:34:54;;;;;;;26.13;12.80;;;;;;;4.56;100.00;101060.78;5092413;28;20024;-47
2023/01/14 05:37:19;;;;;;;27.50;13.10;;;;;;;4.56;100.00;101049.84;5091826;28;20024;-47
2023/01/14 05:39:45;;;;;;;25.63;13.23;;;;;;;4.58;100.00;101041.34;5091062;28;20024;-50
2023/01/14 05:47:37;;;;;;;;;;;;;;;4.63;100.00;101014.81;5091865;28;20039;-47
2023/01/14 05:50:03;;;;;;;28.73;13.90;;;;;;;4.62;100.00;101009.59;5091798;28;19920;-47
2023/01/14 05:52:29;;;;;;;27.77;13.27;;;;;;;4.61;100.00;100995.06;5091797;28;20349;-50
2023/01/14 05:54:54;;;;;;;27.52;13.30;;;;;;;4.61;100.00;100992.31;5091811;28;20040;-50
2023/01/14 05:57:19;;;;;;;26.20;13.55;;;;;;;4.63;100.00;100986.59;5091654;28;20115;-45
2023/01/14 05:59:44;;;;;;;27.25;13.32;;;;;;;4.61;100.00;100984.09;5090940;28;20028;-47
2023/01/14 06:07:37;;;;;;;;;;;;;;;4.68;100.00;100968.25;5091987;28;20042;-47
2023/01/14 06:10:03;;;;;;;27.48;12.75;;;;;;;4.69;100.00;100955.38;5091316;28;19911;-47
2023/01/14 06:15:13;;;;;;;27.10;13.23;;;;;;;4.73;100.00;100950.19;5091444;28;20425;-48
2023/01/14 06:17:45;;;;;;;30.70;13.65;;;;;;;4.73;100.00;100947.47;5091153;28;20111;-50
2023/01/14 06:20:10;;;;;;;26.15;12.55;;;;;;;4.75;100.00;100948.84;5091630;28;20020;-47
2023/01/14 06:22:36;;;;;;;28.17;12.35;;;;;;;4.76;100.00;100936.78;5090056;28;20085;-49
2023/01/14 06:25:01;;;;;;;25.45;11.93;;;;;;;4.79;100.00;100927.19;5090542;28;20035;-48
2023/01/14 06:27:26;;;;;;;29.05;13.23;;;;;;;4.84;100.00;100932.72;5089872;28;20034;-50
2023/01/14 06:29:51;;;;;;;23.67;12.18;;;;;;;4.87;100.00;100931.38;5091472;28;20102;-47
2023/01/14 06:32:18;;;;;;;28.35;12.20;;;;;;;4.88;100.00;100911.09;5091477;28;20123;-50
2023/01/14 06:34:43;;;;;;;26.13;12.20;;;;;;;4.88;100.00;100917.38;5091380;28;20021;-49
2023/01/14 06:37:08;;;;;;;27.38;12.57;;;;;;;4.90;100.00;100901.50;5091155;28;20032;-47
2023/01/14 06:39:34;;;;;;;24.00;12.75;;;;;;;4.92;100.00;100899.31;5091283;28;20024;-49
2023/01/14 06:41:59;;;;;;;25.85;12.48;;;;;;;4.94;100.00;100890.81;5091109;28;20539;-47
2023/01/14 06:44:25;;;;;;;25.25;12.52;;;;;;;4.94;100.00;100882.59;5091113;28;20039;-47
2023/01/14 06:46:50;;;;;;;30.38;12.38;;;;;;;4.95;100.00;100876.03;5091073;28;20028;-48
2023/01/14 06:49:15;;;;;;;26.95;12.70;;;;;;;4.97;100.00;100871.09;5090878;28;20053;-51
2023/01/14 06:51:40;;;;;;;23.38;11.93;;;;;;;4.94;100.00;100861.50;5090812;28;20107;-54
2023/01/14 06:54:07;;;;;;;25.02;12.57;;;;;;;4.95;100.00;100859.56;5090893;28;20051;-47
2023/01/14 06:56:33;;;;;;;26.27;12.68;;;;;;;4.98;100.00;100848.09;5089332;28;20028;-48
2023/01/14 06:58:58;;;;;;;27.20;13.27;;;;;;;4.97;100.00;100847.25;5088927;28;20032;-49
2023/01/14 07:01:23;;;;;;;25.38;12.93;;;;;;;4.99;100.00;100841.50;5091231;28;20112;-49
2023/01/14 07:03:49;;;;;;;25.13;12.77;;;;;;;5.00;100.00;100835.75;5090827;28;20096;-48
2023/01/14 07:06:14;;;;;;;28.15;13.18;;;;;;;4.99;100.00;100827.81;5090980;28;20060;-47
2023/01/14 07:08:40;;;;;;;26.27;13.40;;;;;;;4.99;100.00;100819.56;5090936;28;20089;-47
2023/01/14 07:11:05;;;;;;;25.40;12.40;;;;;;;5.00;100.00;100821.22;5093816;28;20494;-50
2023/01/14 07:13:31;;;;;;;23.98;12.57;;;;;;;5.00;100.00;100821.22;5087296;28;20027;-50
2023/01/14 07:15:57;;;;;;;23.60;12.43;;;;;;;4.99;100.00;100811.34;5095200;28;20020;-49
2023/01/14 07:18:22;;;;;;;24.05;12.43;;;;;;;4.97;100.00;100806.13;5095215;28;20492;-51
2023/01/14 07:20:48;;;;;;;27.67;13.25;;;;;;;4.97;100.00;100795.16;5095105;28;20028;-52
2023/01/14 07:23:13;;;;;;;25.48;13.70;;;;;;;4.97;100.00;100786.13;5095017;28;20424;-49
2023/01/14 07:25:39;;;;;;;24.80;13.02;;;;;;;4.97;100.00;100766.91;5093800;28;20035;-48
2023/01/14 07:28:05;;;;;;;24.17;13.57;;;;;;;5.01;100.00;100762.53;5093395;28;20445;-49
2023/01/14 07:30:30;;;;;;;23.05;12.70;;;;;;;4.99;100.00;100753.78;5093323;28;20161;-49
2023/01/14 07:33:00;;;;;;;23.25;13.10;;;;;;;4.97;100.00;100755.97;5092969;28;20024;-49
2023/01/14 07:35:26;;;;;;;25.83;12.98;;;;;;;4.98;100.00;100743.91;5093124;28;20101;-50
2023/01/14 07:37:56;;;;;;;26.08;14.10;;;;;;;4.98;100.00;100749.38;5093018;28;20141;-50
2023/01/14 07:40:23;;;;;;;24.08;14.10;;;;;;;5.00;100.00;100741.72;5092939;28;20041;-51
2023/01/14 07:42:57;;;;;;;23.55;14.40;;;;;;;4.99;100.00;100731.84;5092732;28;20107;-48
2023/01/14 07:45:22;;;;;;;;;;;;;;;5.04;100.00;100733.78;5093382;28;20176;-48
2023/01/14 07:47:47;;;;;;;24.50;14.40;;;;;;;4.98;100.00;100711.81;5092651;28;20022;-49
2023/01/14 07:50:13;;;;;;;24.15;13.73;;;;;;;5.03;100.00;100718.41;5092479;28;20165;-47
2023/01/14 07:52:38;;;;;;;30.10;13.95;;;;;;;5.06;100.00;100709.63;5092381;28;20036;-47
2023/01/14 07:55:04;;;;;;;23.45;14.13;;;;;;;5.08;100.00;100696.47;5092410;28;20490;-48
2023/01/14 07:57:29;;;;;;;25.42;13.60;;;;;;;5.05;100.00;100684.13;5090886;28;20057;-48
2023/01/14 07:59:54;;;;;;;24.75;13.80;;;;;;;5.08;100.00;100682.75;5092571;28;20058;-47
2023/01/14 08:02:19;;;;;;;22.15;13.48;;;;;;;5.09;100.00;100670.69;5092281;28;20367;-47
2023/01/14 08:04:45;;;;;;;24.15;13.15;;;;;;;5.11;100.00;100661.09;5092254;28;20136;-48
2023/01/14 08:07:11;;;;;;;22.17;13.43;;;;;;;5.13;100.00;100647.94;5088850;28;20060;-48
2023/01/14 08:09:36;;;;;;;25.45;14.40;;;;;;;5.17;100.00;100633.69;5087712;28;20028;-49
2023/01/14 08:12:02;;;;;;;23.45;12.98;;;;;;;5.19;100.00;100640.53;5091217;28;20024;-46
2023/01/14 08:14:27;;;;;;;21.38;12.25;;;;;;;5.22;100.00;100623.53;5092369;28;20035;-48
2023/01/14 08:16:53;;;;;;;25.80;13.95;;;;;;;5.28;100.00;100616.94;5092797;28;20032;-50
2023/01/14 08:19:18;;;;;;;20.80;13.32;;;;;;;5.28;100.00;100605.16;5092418;28;20024;-47
2023/01/14 08:21:44;;;;;;;21.90;13.00;;;;;;;5.31;100.00;100596.34;5091263;28;20417;-50
2023/01/14 08:24:09;;;;;;;22.23;13.65;;;;;;;5.31;100.00;100597.19;5092112;28;20456;-49
2023/01/14 08:26:35;;;;;;;23.92;13.02;;;;;;;5.34;100.00;100590.31;5091530;28;20040;-47
2023/01/14 08:29:00;;;;;;;22.95;12.25;;;;;;;5.38;100.00;100568.63;5092085;28;20388;-47
2023/01/14 08:31:25;;;;;;;20.25;12.10;;;;;;;5.41;100.00;100562.59;5092948;28;20024;-47
2023/01/14 08:33:51;;;;;;;19.85;12.63;;;;;;;5.46;100.00;100573.56;5092711;28;20115;-49
2023/01/14 08:36:18;;;;;;;22.73;12.45;;;;;;;5.45;100.00;100564.50;5093070;28;20035;-48
2023/01/14 08:38:46;;;;;;;21.48;12.82;;;;;;;5.41;100.00;100525.00;5090939;28;20062;-52
2023/01/14 08:41:14;;;;;;;20.23;12.40;;;;;;;5.50;100.00;100541.72;5093008;28;20024;-51
2023/01/14 08:43:40;;;;;;;20.05;12.38;;;;;;;5.55;100.00;100532.66;5092386;28;20552;-47
2023/01/14 08:46:07;;;;;;;20.48;12.75;;;;;;;5.58;100.00;100523.84;5091672;28;20451;-52
2023/01/14 08:48:33;;;;;;;19.77;11.90;;;;;;;5.60;100.00;100521.66;5091914;28;20016;-49
2023/01/14 08:51:06;;;;;;;20.50;11.90;;;;;;;5.60;100.00;100511.50;5091729;28;20437;-49
2023/01/14 08:53:34;;;;;;;20.98;11.95;;;;;;;5.63;100.00;100488.16;5091892;28;20075;-48
2023/01/14 08:56:00;;;;;;;20.05;11.55;;;;;;;5.69;100.00;100495.25;5092402;28;20026;-52
2023/01/14 08:58:26;;;;;;;17.08;11.70;;;;;;;5.71;100.00;100484.81;5092402;28;20102;-48
2023/01/14 09:01:00;;;;;;;18.23;11.45;;;;;;;5.75;100.00;100477.69;5091528;28;20020;-49
2023/01/14 09:03:27;;;;;;;19.88;12.27;;;;;;;5.82;100.00;100468.31;5088264;28;20119;-48
2023/01/14 09:06:01;;;;;;;18.50;13.48;;;;;;;5.85;100.00;100451.28;5089844;28;20511;-50
2023/01/14 09:19:26;;;;;;;20.40;14.45;;;;;;;6.04;100.00;100416.59;5092453;28;20043;-48
2023/01/14 09:21:51;;;;;;;20.55;13.05;;;;;;;6.05;100.00;100440.16;5092193;28;20394;-48
2023/01/14 09:24:17;;;;;;;19.65;12.98;;;;;;;6.09;100.00;100418.47;5092570;28;20028;-48
2023/01/14 09:26:42;;;;;;;21.75;13.27;;;;;;;6.11;100.00;100418.16;5083073;28;20448;-47
2023/01/14 09:29:07;;;;;;;24.58;19.00;;;;;;;6.12;100.00;100412.38;5071630;28;20048;-47
2023/01/14 09:31:32;;;;;;;22.13;12.65;;;;;;;6.14;100.00;100407.44;5071883;28;20045;-48
2023/01/14 09:33:58;;;;;;;17.83;11.27;;;;;;;6.14;100.00;100393.69;5071073;28;20032;-49
2023/01/14 09:36:23;;;;;;;22.95;17.55;;;;;;;6.18;100.00;100389.28;5074174;28;20541;-52
2023/01/14 09:38:48;;;;;;;20.58;14.77;;;;;;;6.20;100.00;100375.25;5080961;28;20482;-51
2023/01/14 09:41:27;;;;;;;23.75;18.80;;;;;;;6.23;100.00;100378.22;5078984;28;20119;-49
2023/01/14 09:43:53;;;;;;;17.60;10.18;;;;;;;6.27;100.00;100358.44;5071991;28;20032;-51
2023/01/14 09:46:24;;;;;;;20.05;13.35;;;;;;;6.27;100.00;100363.94;5071612;28;20483;-50
2023/01/14 09:48:51;;;;;;;20.20;13.32;;;;;;;6.29;100.00;100354.28;5071842;28;20411;-52
2023/01/14 09:51:46;;;;;;;20.02;15.95;;;;;;;6.32;100.00;100341.91;5071904;28;20034;-49
2023/01/14 09:54:34;;;;;;;20.35;10.65;;;;;;;6.36;100.00;100330.03;5071570;28;20484;-52
2023/01/14 09:57:11;;;;;;;23.73;16.33;;;;;;;6.36;100.00;100335.53;5075808;28;20468;-48
2023/01/14 10:00:20;;;;;;;22.30;17.98;;;;;;;6.41;100.00;100323.66;5072864;28;20017;-51
2023/01/14 10:03:13;;;;;;;21.30;12.43;;;;;;;6.45;100.00;100324.75;5056809;28;20074;-52
2023/01/14 10:05:39;;;;;;;19.98;12.52;;;;;;;6.46;100.00;100309.88;5082301;28;20028;-52
2023/01/14 10:08:12;;;;;;;18.42;10.05;;;;;;;6.44;100.00;100309.34;5080736;28;20032;-50
2023/01/14 10:10:43;;;;;;;17.65;10.90;;;;;;;6.44;100.00;100295.63;5077744;28;20471;-54
2023/01/14 10:13:23;;;;;;;17.90;11.15;;;;;;;6.50;100.00;100288.94;5079347;28;20016;-51
2023/01/14 10:15:54;;;;;;;19.48;11.05;;;;;;;6.52;100.00;100259.25;5079505;28;20048;-52
2023/01/14 10:18:36;;;;;;;18.17;11.32;;;;;;;6.58;100.00;100265.50;5077946;28;20055;-50
2023/01/14 10:21:11;;;;;;;20.70;10.60;;;;;;;6.59;100.00;100256.16;5072288;28;20036;-52
2023/01/14 10:23:40;;;;;;;18.42;10.27;;;;;;;6.62;100.00;100249.25;5068251;28;20024;-49
2023/01/14 10:26:14;;;;;;;18.20;9.35;;;;;;;6.65;100.00;100235.72;5069358;28;20039;-51
2023/01/14 10:28:41;;;;;;;19.20;9.65;;;;;;;6.70;100.00;100219.19;5069286;28;20082;-52
2023/01/14 10:31:13;;;;;;;19.35;9.82;;;;;;;6.76;100.00;100221.84;5069085;28;20058;-54
2023/01/14 10:33:38;;;;;;;17.35;9.35;;;;;;;6.77;100.00;100216.03;5079279;28;20047;-49
2023/01/14 10:36:11;;;;;;;16.63;9.82;;;;;;;6.81;100.00;100199.75;5089401;28;20028;-48
2023/01/14 10:38:40;;;;;;;15.80;9.40;;;;;;;6.87;100.00;100196.66;5089211;28;20093;-53
2023/01/14 10:41:07;;;;;;;18.33;11.68;;;;;;;6.93;100.00;100194.66;5089426;28;20024;-52
2023/01/14 10:43:37;;;;;;;18.10;11.05;;;;;;;6.96;100.00;100196.81;5087806;28;20099;-48
2023/01/14 10:46:02;;;;;;;16.83;9.15;;;;;;;7.03;100.00;100153.25;5089059;28;20032;-52
2023/01/14 10:48:44;;;;;;;15.40;9.10;;;;;;;6.99;100.00;100143.16;5089481;28;20031;-49
2023/01/14 10:51:28;;;;;;;18.52;8.65;;;;;;;7.11;100.00;100162.75;5089414;28;20142;-51
2023/01/14 10:54:08;;;;;;;18.05;9.57;;;;;;;7.14;100.00;100150.34;5085188;28;20052;-50
2023/01/14 10:56:34;;;;;;;16.15;9.27;;;;;;;7.17;100.00;100130.50;5086498;28;20502;-52
2023/01/14 10:59:00;;;;;;;16.33;9.32;;;;;;;7.18;100.00;100132.94;5089191;28;20055;-51
2023/01/14 11:01:25;;;;;;;15.80;8.57;;;;;;;7.19;100.00;100139.22;5089171;28;20047;-49
2023/01/14 11:03:51;;;;;;;16.85;8.70;;;;;;;7.22;100.00;100127.63;5089248;28;20027;-52
2023/01/14 11:06:17;;;;;;;15.32;8.43;;;;;;;7.26;100.00;100111.34;5087390;28;20020;-51
2023/01/14 11:08:51;;;;;;;14.70;8.40;;;;;;;7.28;100.00;100098.09;5089079;28;20028;-51
2023/01/14 11:11:19;;;;;;;14.10;8.50;;;;;;;7.33;100.00;100082.31;5085919;28;20032;-50
2023/01/14 11:13:51;;;;;;;13.80;8.35;;;;;;;7.34;100.00;100080.38;5068353;28;20032;-49
2023/01/14 11:16:25;;;;;;;13.65;8.82;;;;;;;7.43;100.00;100078.56;5068206;28;20029;-49
2023/01/14 11:18:59;;;;;;;17.15;9.50;;;;;;;7.47;100.00;100063.06;5067786;28;20029;-51
2023/01/14 11:21:33;;;;;;;12.82;8.57;;;;;;;7.52;100.00;100055.81;5066674;28;20032;-52
2023/01/14 11:24:08;;;;;;;16.10;9.20;;;;;;;7.53;100.00;100066.56;5068066;28;20032;-55
2023/01/14 11:26:39;;;;;;;12.88;8.60;;;;;;;7.57;100.00;100061.25;5066551;28;20032;-52
2023/01/14 11:29:25;;;;;;;13.82;8.57;;;;;;;7.68;100.00;100043.41;5068199;28;20419;-51
2023/01/14 11:31:57;;;;;;;11.35;8.30;;;;;;;7.71;100.00;100018.00;5067778;28;20567;-49
2023/01/14 11:34:36;;;;;;;14.93;8.80;;;;;;;7.69;100.00;100025.78;5067803;28;20069;-50
2023/01/14 11:37:18;;;;;;;15.38;9.10;;;;;;;7.65;100.00;100005.47;5067280;28;20274;-50
2023/01/14 11:39:50;;;;;;;12.43;8.90;;;;;;;7.72;100.00;100021.59;5066522;28;20454;-53
2023/01/14 11:42:35;;;;;;;12.75;8.88;;;;;;;7.74;100.00;100011.88;5068088;28;20110;-51
2023/01/14 11:45:10;;;;;;;12.70;8.85;;;;;;;7.79;100.00;100011.78;5067805;28;20116;-53
2023/01/14 11:47:55;;;;;;;13.40;8.85;;;;;;;7.89;100.00;99985.97;5068228;28;20032;-51
2023/01/14 11:50:28;;;;;;;12.57;9.10;;;;;;;7.81;100.00;99983.94;5067124;28;20107;-50
2023/01/14 11:53:16;;;;;;;13.95;9.40;;;;;;;7.88;100.00;100000.84;5062119;28;20097;-56